<?xml version="1.0" encoding="UTF-8" standalone="no" ?>
<gpx xmlns="http://www.topografix.com/GPX/1/1" xmlns:xsi="http://www.w3.org/2001/XMLSchema-instance" xsi:schemaLocation="http://www.topografix.com/GPX/1/1 http://www.topografix.com/GPX/1/1/gpx.xsd" version="1.1" creator="VisuGPX - https://www.visugpx.com">
  <metadata>
    <name>Chapelle Notre-Dame de Roubignac par les dolmens à Octon</name>
    <desc><![CDATA[#fait]]></desc>
  </metadata>
  <wpt lat="43.65384" lon="3.30372">
    <ele>187</ele>
    <name><![CDATA[Parking sous la place du village]]></name>
  </wpt>
  <wpt lat="43.65665" lon="3.30789">
    <ele>187</ele>
    <name><![CDATA[Bifurcation après le pont, à gauche]]></name>
  </wpt>
  <wpt lat="43.66588" lon="3.31518">
    <ele>378</ele>
    <name><![CDATA[Prairie, tout droit, fin du PR]]></name>
  </wpt>
  <wpt lat="43.66741" lon="3.31023">
    <ele>394</ele>
    <name><![CDATA[Tout droit]]></name>
  </wpt>
  <wpt lat="43.6705" lon="3.3012">
    <ele>359</ele>
    <name><![CDATA[Bifurcation à droite]]></name>
  </wpt>
  <wpt lat="43.67216" lon="3.29943">
    <ele>365</ele>
    <name><![CDATA[Dolmens]]></name>
  </wpt>
  <wpt lat="43.66831" lon="3.28872">
    <ele>355</ele>
    <name><![CDATA[Portail, à droite]]></name>
  </wpt>
  <wpt lat="43.66685" lon="3.27898">
    <ele>293</ele>
    <name><![CDATA[Gué]]></name>
  </wpt>
  <wpt lat="43.65383" lon="3.30372">
    <ele>187</ele>
    <name><![CDATA[D/A]]></name>
  </wpt>
  <trk>
    <name><![CDATA[Chapelle Notre-Dame de Roubignac par les dolmens à Octon]]></name>
    <trkseg>
      <trkpt lat="43.65384" lon="3.30372">
        <ele>187</ele>
        <time>2016-11-12T11:38:31+01:00</time>
      </trkpt>
      <trkpt lat="43.65388" lon="3.30358">
        <ele>188</ele>
      </trkpt>
      <trkpt lat="43.65393" lon="3.30346">
        <ele>188</ele>
        <time>2016-11-12T11:40:07+01:00</time>
      </trkpt>
      <trkpt lat="43.65411" lon="3.30332">
        <ele>190</ele>
        <time>2016-11-12T11:40:25+01:00</time>
      </trkpt>
      <trkpt lat="43.65418" lon="3.30326">
        <ele>190</ele>
        <time>2016-11-12T11:40:38+01:00</time>
      </trkpt>
      <trkpt lat="43.65435" lon="3.30312">
        <ele>192</ele>
        <time>2016-11-12T11:41:11+01:00</time>
      </trkpt>
      <trkpt lat="43.65454" lon="3.30302">
        <ele>194</ele>
        <time>2016-11-12T11:41:35+01:00</time>
      </trkpt>
      <trkpt lat="43.65468" lon="3.30312">
        <ele>193</ele>
        <time>2016-11-12T11:41:46+01:00</time>
      </trkpt>
      <trkpt lat="43.65485" lon="3.30327">
        <ele>193</ele>
        <time>2016-11-12T11:42:02+01:00</time>
      </trkpt>
      <trkpt lat="43.65497" lon="3.30351">
        <ele>192</ele>
        <time>2016-11-12T11:42:18+01:00</time>
      </trkpt>
      <trkpt lat="43.65505" lon="3.30368">
        <ele>191</ele>
        <time>2016-11-12T11:42:31+01:00</time>
      </trkpt>
      <trkpt lat="43.65512" lon="3.30387">
        <ele>191</ele>
        <time>2016-11-12T11:42:43+01:00</time>
      </trkpt>
      <trkpt lat="43.65526" lon="3.30425">
        <ele>190</ele>
        <time>2016-11-12T11:43:08+01:00</time>
      </trkpt>
      <trkpt lat="43.65533" lon="3.30452">
        <ele>190</ele>
        <time>2016-11-12T11:43:23+01:00</time>
      </trkpt>
      <trkpt lat="43.65539" lon="3.30472">
        <ele>191</ele>
        <time>2016-11-12T11:43:38+01:00</time>
      </trkpt>
      <trkpt lat="43.65553" lon="3.305">
        <ele>192</ele>
        <time>2016-11-12T11:43:59+01:00</time>
      </trkpt>
      <trkpt lat="43.65563" lon="3.30525">
        <ele>193</ele>
        <time>2016-11-12T11:48:21+01:00</time>
      </trkpt>
      <trkpt lat="43.65565" lon="3.30537">
        <ele>193</ele>
        <time>2016-11-12T11:48:38+01:00</time>
      </trkpt>
      <trkpt lat="43.65574" lon="3.30572">
        <ele>193</ele>
        <time>2016-11-12T11:48:55+01:00</time>
      </trkpt>
      <trkpt lat="43.65577" lon="3.30592">
        <ele>192</ele>
        <time>2016-11-12T11:49:06+01:00</time>
      </trkpt>
      <trkpt lat="43.65583" lon="3.30626">
        <ele>190</ele>
        <time>2016-11-12T11:49:24+01:00</time>
      </trkpt>
      <trkpt lat="43.65595" lon="3.3065">
        <ele>189</ele>
        <time>2016-11-12T11:49:41+01:00</time>
      </trkpt>
      <trkpt lat="43.65596" lon="3.30665">
        <ele>189</ele>
        <time>2016-11-12T11:50:13+01:00</time>
      </trkpt>
      <trkpt lat="43.6563" lon="3.30723">
        <ele>187</ele>
        <time>2016-11-12T11:51:54+01:00</time>
      </trkpt>
      <trkpt lat="43.65638" lon="3.30749">
        <ele>186</ele>
        <time>2016-11-12T11:52:08+01:00</time>
      </trkpt>
      <trkpt lat="43.65645" lon="3.30765">
        <ele>186</ele>
        <time>2016-11-12T11:52:21+01:00</time>
      </trkpt>
      <trkpt lat="43.65661" lon="3.30785">
        <ele>186</ele>
        <time>2016-11-12T11:52:37+01:00</time>
      </trkpt>
      <trkpt lat="43.65665" lon="3.30789">
        <ele>187</ele>
        <time>2016-11-12T11:52:42+01:00</time>
      </trkpt>
      <trkpt lat="43.65681" lon="3.30776">
        <ele>189</ele>
        <time>2016-11-12T11:52:58+01:00</time>
      </trkpt>
      <trkpt lat="43.657" lon="3.30763">
        <ele>191</ele>
        <time>2016-11-12T11:53:26+01:00</time>
      </trkpt>
      <trkpt lat="43.6572" lon="3.30735">
        <ele>193</ele>
        <time>2016-11-12T11:54:23+01:00</time>
      </trkpt>
      <trkpt lat="43.6574" lon="3.30734">
        <ele>195</ele>
        <time>2016-11-12T11:54:40+01:00</time>
      </trkpt>
      <trkpt lat="43.65755" lon="3.30718">
        <ele>195</ele>
        <time>2016-11-12T11:54:57+01:00</time>
      </trkpt>
      <trkpt lat="43.65765" lon="3.30718">
        <ele>196</ele>
        <time>2016-11-12T11:55:08+01:00</time>
      </trkpt>
      <trkpt lat="43.65743" lon="3.30744">
        <ele>197</ele>
        <time>2016-11-12T11:55:19+01:00</time>
      </trkpt>
      <trkpt lat="43.6573" lon="3.30753">
        <ele>197</ele>
        <time>2016-11-12T11:55:38+01:00</time>
      </trkpt>
      <trkpt lat="43.65714" lon="3.30773">
        <ele>196</ele>
        <time>2016-11-12T11:56:04+01:00</time>
      </trkpt>
      <trkpt lat="43.65705" lon="3.308">
        <ele>198</ele>
        <time>2016-11-12T11:56:17+01:00</time>
      </trkpt>
      <trkpt lat="43.657" lon="3.30827">
        <ele>201</ele>
        <time>2016-11-12T11:56:33+01:00</time>
      </trkpt>
      <trkpt lat="43.65691" lon="3.30853">
        <ele>203</ele>
        <time>2016-11-12T11:56:52+01:00</time>
      </trkpt>
      <trkpt lat="43.65685" lon="3.30873">
        <ele>204</ele>
        <time>2016-11-12T11:57:06+01:00</time>
      </trkpt>
      <trkpt lat="43.6568" lon="3.30899">
        <ele>207</ele>
        <time>2016-11-12T11:57:29+01:00</time>
      </trkpt>
      <trkpt lat="43.65678" lon="3.30913">
        <ele>209</ele>
        <time>2016-11-12T11:57:41+01:00</time>
      </trkpt>
      <trkpt lat="43.65677" lon="3.30954">
        <ele>213</ele>
        <time>2016-11-12T11:58:15+01:00</time>
      </trkpt>
      <trkpt lat="43.65674" lon="3.30981">
        <ele>214</ele>
        <time>2016-11-12T11:58:36+01:00</time>
      </trkpt>
      <trkpt lat="43.6568" lon="3.31006">
        <ele>217</ele>
        <time>2016-11-12T11:59:02+01:00</time>
      </trkpt>
      <trkpt lat="43.65683" lon="3.31026">
        <ele>218</ele>
        <time>2016-11-12T11:59:15+01:00</time>
      </trkpt>
      <trkpt lat="43.65693" lon="3.3105">
        <ele>219</ele>
        <time>2016-11-12T11:59:37+01:00</time>
      </trkpt>
      <trkpt lat="43.65703" lon="3.31066">
        <ele>220</ele>
        <time>2016-11-12T11:59:53+01:00</time>
      </trkpt>
      <trkpt lat="43.65712" lon="3.31074">
        <ele>221</ele>
        <time>2016-11-12T12:00:01+01:00</time>
      </trkpt>
      <trkpt lat="43.65736" lon="3.31082">
        <ele>226</ele>
        <time>2016-11-12T12:00:22+01:00</time>
      </trkpt>
      <trkpt lat="43.65738" lon="3.31053">
        <ele>230</ele>
        <time>2016-11-12T12:01:02+01:00</time>
      </trkpt>
      <trkpt lat="43.65726" lon="3.31031">
        <ele>229</ele>
        <time>2016-11-12T12:01:22+01:00</time>
      </trkpt>
      <trkpt lat="43.65732" lon="3.31007">
        <ele>232</ele>
        <time>2016-11-12T12:01:52+01:00</time>
      </trkpt>
      <trkpt lat="43.65736" lon="3.30986">
        <ele>234</ele>
        <time>2016-11-12T12:02:03+01:00</time>
      </trkpt>
      <trkpt lat="43.65756" lon="3.30958">
        <ele>239</ele>
        <time>2016-11-12T12:02:40+01:00</time>
      </trkpt>
      <trkpt lat="43.65757" lon="3.30929">
        <ele>240</ele>
        <time>2016-11-12T12:02:55+01:00</time>
      </trkpt>
      <trkpt lat="43.65771" lon="3.30882">
        <ele>242</ele>
        <time>2016-11-12T12:03:41+01:00</time>
      </trkpt>
      <trkpt lat="43.65799" lon="3.30847">
        <ele>245</ele>
        <time>2016-11-12T12:04:06+01:00</time>
      </trkpt>
      <trkpt lat="43.65818" lon="3.30849">
        <ele>249</ele>
        <time>2016-11-12T12:04:54+01:00</time>
      </trkpt>
      <trkpt lat="43.65827" lon="3.30853">
        <ele>251</ele>
        <time>2016-11-12T12:05:03+01:00</time>
      </trkpt>
      <trkpt lat="43.65845" lon="3.30869">
        <ele>253</ele>
        <time>2016-11-12T12:05:26+01:00</time>
      </trkpt>
      <trkpt lat="43.65853" lon="3.30885">
        <ele>254</ele>
        <time>2016-11-12T12:05:41+01:00</time>
      </trkpt>
      <trkpt lat="43.65854" lon="3.30898">
        <ele>254</ele>
        <time>2016-11-12T12:05:52+01:00</time>
      </trkpt>
      <trkpt lat="43.65858" lon="3.30937">
        <ele>256</ele>
        <time>2016-11-12T12:06:22+01:00</time>
      </trkpt>
      <trkpt lat="43.65854" lon="3.30966">
        <ele>258</ele>
        <time>2016-11-12T12:06:47+01:00</time>
      </trkpt>
      <trkpt lat="43.65846" lon="3.30995">
        <ele>259</ele>
        <time>2016-11-12T12:07:00+01:00</time>
      </trkpt>
      <trkpt lat="43.65855" lon="3.31021">
        <ele>257</ele>
        <time>2016-11-12T12:07:29+01:00</time>
      </trkpt>
      <trkpt lat="43.65874" lon="3.31029">
        <ele>258</ele>
        <time>2016-11-12T12:07:47+01:00</time>
      </trkpt>
      <trkpt lat="43.6589" lon="3.31042">
        <ele>260</ele>
        <time>2016-11-12T12:08:07+01:00</time>
      </trkpt>
      <trkpt lat="43.65909" lon="3.31046">
        <ele>260</ele>
        <time>2016-11-12T12:08:33+01:00</time>
      </trkpt>
      <trkpt lat="43.65941" lon="3.31075">
        <ele>264</ele>
        <time>2016-11-12T12:09:15+01:00</time>
      </trkpt>
      <trkpt lat="43.65955" lon="3.31084">
        <ele>267</ele>
        <time>2016-11-12T12:09:33+01:00</time>
      </trkpt>
      <trkpt lat="43.65964" lon="3.31107">
        <ele>269</ele>
        <time>2016-11-12T12:09:59+01:00</time>
      </trkpt>
      <trkpt lat="43.65962" lon="3.31134">
        <ele>271</ele>
        <time>2016-11-12T12:10:38+01:00</time>
      </trkpt>
      <trkpt lat="43.65973" lon="3.31157">
        <ele>273</ele>
        <time>2016-11-12T12:11:00+01:00</time>
      </trkpt>
      <trkpt lat="43.65982" lon="3.3118">
        <ele>275</ele>
        <time>2016-11-12T12:11:21+01:00</time>
      </trkpt>
      <trkpt lat="43.65993" lon="3.31201">
        <ele>276</ele>
        <time>2016-11-12T12:12:03+01:00</time>
      </trkpt>
      <trkpt lat="43.66009" lon="3.31213">
        <ele>279</ele>
        <time>2016-11-12T12:12:41+01:00</time>
      </trkpt>
      <trkpt lat="43.66027" lon="3.31198">
        <ele>284</ele>
        <time>2016-11-12T12:14:27+01:00</time>
      </trkpt>
      <trkpt lat="43.6603" lon="3.31179">
        <ele>285</ele>
        <time>2016-11-12T12:14:44+01:00</time>
      </trkpt>
      <trkpt lat="43.66037" lon="3.31155">
        <ele>288</ele>
        <time>2016-11-12T12:15:10+01:00</time>
      </trkpt>
      <trkpt lat="43.66059" lon="3.31129">
        <ele>295</ele>
        <time>2016-11-12T12:15:46+01:00</time>
      </trkpt>
      <trkpt lat="43.66068" lon="3.31112">
        <ele>297</ele>
        <time>2016-11-12T12:16:04+01:00</time>
      </trkpt>
      <trkpt lat="43.66075" lon="3.31083">
        <ele>299</ele>
        <time>2016-11-12T12:16:33+01:00</time>
      </trkpt>
      <trkpt lat="43.66088" lon="3.31059">
        <ele>303</ele>
        <time>2016-11-12T12:20:13+01:00</time>
      </trkpt>
      <trkpt lat="43.66098" lon="3.31022">
        <ele>307</ele>
        <time>2016-11-12T12:20:47+01:00</time>
      </trkpt>
      <trkpt lat="43.66103" lon="3.30995">
        <ele>309</ele>
        <time>2016-11-12T12:21:09+01:00</time>
      </trkpt>
      <trkpt lat="43.66109" lon="3.30971">
        <ele>310</ele>
        <time>2016-11-12T12:21:27+01:00</time>
      </trkpt>
      <trkpt lat="43.6611" lon="3.30943">
        <ele>310</ele>
        <time>2016-11-12T12:21:46+01:00</time>
      </trkpt>
      <trkpt lat="43.66114" lon="3.30917">
        <ele>310</ele>
        <time>2016-11-12T12:22:06+01:00</time>
      </trkpt>
      <trkpt lat="43.66124" lon="3.30893">
        <ele>313</ele>
        <time>2016-11-12T12:22:28+01:00</time>
      </trkpt>
      <trkpt lat="43.66138" lon="3.30876">
        <ele>317</ele>
        <time>2016-11-12T12:23:18+01:00</time>
      </trkpt>
      <trkpt lat="43.66135" lon="3.30956">
        <ele>322</ele>
        <time>2016-11-12T12:23:48+01:00</time>
      </trkpt>
      <trkpt lat="43.66136" lon="3.30983">
        <ele>323</ele>
        <time>2016-11-12T12:24:07+01:00</time>
      </trkpt>
      <trkpt lat="43.66137" lon="3.30997">
        <ele>324</ele>
        <time>2016-11-12T12:24:17+01:00</time>
      </trkpt>
      <trkpt lat="43.66136" lon="3.31025">
        <ele>325</ele>
        <time>2016-11-12T12:24:36+01:00</time>
      </trkpt>
      <trkpt lat="43.6614" lon="3.3106">
        <ele>328</ele>
        <time>2016-11-12T12:25:01+01:00</time>
      </trkpt>
      <trkpt lat="43.66143" lon="3.31087">
        <ele>330</ele>
        <time>2016-11-12T12:26:37+01:00</time>
      </trkpt>
      <trkpt lat="43.66155" lon="3.31109">
        <ele>332</ele>
        <time>2016-11-12T12:27:29+01:00</time>
      </trkpt>
      <trkpt lat="43.66169" lon="3.31135">
        <ele>337</ele>
        <time>2016-11-12T12:28:00+01:00</time>
      </trkpt>
      <trkpt lat="43.66183" lon="3.31155">
        <ele>340</ele>
        <time>2016-11-12T12:28:26+01:00</time>
      </trkpt>
      <trkpt lat="43.66189" lon="3.3118">
        <ele>342</ele>
        <time>2016-11-12T12:28:49+01:00</time>
      </trkpt>
      <trkpt lat="43.66208" lon="3.31212">
        <ele>344</ele>
        <time>2016-11-12T12:29:18+01:00</time>
      </trkpt>
      <trkpt lat="43.66218" lon="3.31257">
        <ele>344</ele>
        <time>2016-11-12T12:29:51+01:00</time>
      </trkpt>
      <trkpt lat="43.66224" lon="3.31283">
        <ele>343</ele>
        <time>2016-11-12T12:30:09+01:00</time>
      </trkpt>
      <trkpt lat="43.66226" lon="3.3131">
        <ele>342</ele>
        <time>2016-11-12T12:30:27+01:00</time>
      </trkpt>
      <trkpt lat="43.66229" lon="3.31323">
        <ele>343</ele>
        <time>2016-11-12T12:30:39+01:00</time>
      </trkpt>
      <trkpt lat="43.66245" lon="3.31339">
        <ele>346</ele>
        <time>2016-11-12T12:31:06+01:00</time>
      </trkpt>
      <trkpt lat="43.66256" lon="3.31359">
        <ele>348</ele>
        <time>2016-11-12T12:32:31+01:00</time>
      </trkpt>
      <trkpt lat="43.66276" lon="3.31367">
        <ele>351</ele>
        <time>2016-11-12T12:32:50+01:00</time>
      </trkpt>
      <trkpt lat="43.66296" lon="3.31367">
        <ele>354</ele>
        <time>2016-11-12T12:33:10+01:00</time>
      </trkpt>
      <trkpt lat="43.66325" lon="3.31372">
        <ele>357</ele>
        <time>2016-11-12T12:33:40+01:00</time>
      </trkpt>
      <trkpt lat="43.66344" lon="3.31384">
        <ele>358</ele>
        <time>2016-11-12T12:34:00+01:00</time>
      </trkpt>
      <trkpt lat="43.66376" lon="3.31402">
        <ele>361</ele>
        <time>2016-11-12T12:34:33+01:00</time>
      </trkpt>
      <trkpt lat="43.66394" lon="3.31412">
        <ele>362</ele>
        <time>2016-11-12T12:34:52+01:00</time>
      </trkpt>
      <trkpt lat="43.66403" lon="3.31418">
        <ele>362</ele>
        <time>2016-11-12T12:35:01+01:00</time>
      </trkpt>
      <trkpt lat="43.66421" lon="3.31431">
        <ele>363</ele>
        <time>2016-11-12T12:35:20+01:00</time>
      </trkpt>
      <trkpt lat="43.66459" lon="3.31451">
        <ele>363</ele>
        <time>2016-11-12T12:35:57+01:00</time>
      </trkpt>
      <trkpt lat="43.66473" lon="3.31454">
        <ele>364</ele>
        <time>2016-11-12T12:36:11+01:00</time>
      </trkpt>
      <trkpt lat="43.66493" lon="3.3146">
        <ele>367</ele>
        <time>2016-11-12T12:36:33+01:00</time>
      </trkpt>
      <trkpt lat="43.66512" lon="3.31468">
        <ele>369</ele>
        <time>2016-11-12T12:36:54+01:00</time>
      </trkpt>
      <trkpt lat="43.66526" lon="3.31475">
        <ele>371</ele>
        <time>2016-11-12T12:37:12+01:00</time>
      </trkpt>
      <trkpt lat="43.66545" lon="3.31486">
        <ele>373</ele>
        <time>2016-11-12T12:37:35+01:00</time>
      </trkpt>
      <trkpt lat="43.66558" lon="3.31507">
        <ele>374</ele>
        <time>2016-11-12T12:38:03+01:00</time>
      </trkpt>
      <trkpt lat="43.66588" lon="3.31518">
        <ele>378</ele>
        <time>2016-11-12T12:38:34+01:00</time>
      </trkpt>
      <trkpt lat="43.66607" lon="3.3153">
        <ele>379</ele>
        <time>2016-11-12T12:38:57+01:00</time>
      </trkpt>
      <trkpt lat="43.66628" lon="3.31544">
        <ele>381</ele>
        <time>2016-11-12T12:39:26+01:00</time>
      </trkpt>
      <trkpt lat="43.66648" lon="3.31547">
        <ele>383</ele>
        <time>2016-11-12T12:39:43+01:00</time>
      </trkpt>
      <trkpt lat="43.66672" lon="3.31558">
        <ele>384</ele>
        <time>2016-11-12T12:40:11+01:00</time>
      </trkpt>
      <trkpt lat="43.66699" lon="3.31576">
        <ele>387</ele>
        <time>2016-11-12T12:40:37+01:00</time>
      </trkpt>
      <trkpt lat="43.66712" lon="3.31567">
        <ele>388</ele>
        <time>2016-11-12T12:41:24+01:00</time>
      </trkpt>
      <trkpt lat="43.66721" lon="3.31562">
        <ele>389</ele>
        <time>2016-11-12T12:41:34+01:00</time>
      </trkpt>
      <trkpt lat="43.66734" lon="3.31551">
        <ele>390</ele>
        <time>2016-11-12T12:41:51+01:00</time>
      </trkpt>
      <trkpt lat="43.66753" lon="3.31556">
        <ele>391</ele>
        <time>2016-11-12T12:42:09+01:00</time>
      </trkpt>
      <trkpt lat="43.66771" lon="3.31567">
        <ele>391</ele>
        <time>2016-11-12T12:42:30+01:00</time>
      </trkpt>
      <trkpt lat="43.66789" lon="3.31562">
        <ele>391</ele>
        <time>2016-11-12T12:42:50+01:00</time>
      </trkpt>
      <trkpt lat="43.66804" lon="3.31544">
        <ele>391</ele>
        <time>2016-11-12T12:43:09+01:00</time>
      </trkpt>
      <trkpt lat="43.66814" lon="3.31522">
        <ele>391</ele>
        <time>2016-11-12T12:43:28+01:00</time>
      </trkpt>
      <trkpt lat="43.66825" lon="3.31499">
        <ele>391</ele>
        <time>2016-11-12T12:43:48+01:00</time>
      </trkpt>
      <trkpt lat="43.66835" lon="3.31467">
        <ele>391</ele>
        <time>2016-11-12T12:44:12+01:00</time>
      </trkpt>
      <trkpt lat="43.66836" lon="3.31447">
        <ele>392</ele>
        <time>2016-11-12T12:44:27+01:00</time>
      </trkpt>
      <trkpt lat="43.66834" lon="3.31427">
        <ele>392</ele>
        <time>2016-11-12T12:44:43+01:00</time>
      </trkpt>
      <trkpt lat="43.66831" lon="3.31407">
        <ele>393</ele>
        <time>2016-11-12T12:44:59+01:00</time>
      </trkpt>
      <trkpt lat="43.66829" lon="3.3138">
        <ele>394</ele>
        <time>2016-11-12T12:45:19+01:00</time>
      </trkpt>
      <trkpt lat="43.66831" lon="3.31354">
        <ele>394</ele>
        <time>2016-11-12T12:45:38+01:00</time>
      </trkpt>
      <trkpt lat="43.6684" lon="3.3133">
        <ele>394</ele>
        <time>2016-11-12T12:45:59+01:00</time>
      </trkpt>
      <trkpt lat="43.6684" lon="3.31303">
        <ele>394</ele>
        <time>2016-11-12T12:46:16+01:00</time>
      </trkpt>
      <trkpt lat="43.66845" lon="3.31285">
        <ele>394</ele>
        <time>2016-11-12T12:46:31+01:00</time>
      </trkpt>
      <trkpt lat="43.66847" lon="3.31251">
        <ele>394</ele>
        <time>2016-11-12T12:46:55+01:00</time>
      </trkpt>
      <trkpt lat="43.66842" lon="3.31226">
        <ele>394</ele>
        <time>2016-11-12T12:47:16+01:00</time>
      </trkpt>
      <trkpt lat="43.66828" lon="3.31207">
        <ele>394</ele>
        <time>2016-11-12T12:47:35+01:00</time>
      </trkpt>
      <trkpt lat="43.66823" lon="3.3118">
        <ele>394</ele>
        <time>2016-11-12T12:47:54+01:00</time>
      </trkpt>
      <trkpt lat="43.66813" lon="3.31164">
        <ele>394</ele>
        <time>2016-11-12T12:48:09+01:00</time>
      </trkpt>
      <trkpt lat="43.66807" lon="3.31138">
        <ele>395</ele>
        <time>2016-11-12T12:48:30+01:00</time>
      </trkpt>
      <trkpt lat="43.66792" lon="3.31122">
        <ele>395</ele>
        <time>2016-11-12T12:48:49+01:00</time>
      </trkpt>
      <trkpt lat="43.66778" lon="3.31104">
        <ele>395</ele>
        <time>2016-11-12T12:49:08+01:00</time>
      </trkpt>
      <trkpt lat="43.66764" lon="3.31087">
        <ele>395</ele>
        <time>2016-11-12T12:49:26+01:00</time>
      </trkpt>
      <trkpt lat="43.66756" lon="3.3107">
        <ele>395</ele>
        <time>2016-11-12T12:49:43+01:00</time>
      </trkpt>
      <trkpt lat="43.66743" lon="3.3105">
        <ele>395</ele>
        <time>2016-11-12T12:50:04+01:00</time>
      </trkpt>
      <trkpt lat="43.66741" lon="3.31023">
        <ele>394</ele>
        <time>2016-11-12T12:50:21+01:00</time>
      </trkpt>
      <trkpt lat="43.66738" lon="3.31005">
        <ele>394</ele>
        <time>2016-11-12T12:50:37+01:00</time>
      </trkpt>
      <trkpt lat="43.66727" lon="3.3098">
        <ele>393</ele>
        <time>2016-11-12T12:50:53+01:00</time>
      </trkpt>
      <trkpt lat="43.66717" lon="3.30955">
        <ele>393</ele>
        <time>2016-11-12T12:51:11+01:00</time>
      </trkpt>
      <trkpt lat="43.66711" lon="3.30946">
        <ele>392</ele>
        <time>2016-11-12T12:51:21+01:00</time>
      </trkpt>
      <trkpt lat="43.66695" lon="3.3092">
        <ele>391</ele>
        <time>2016-11-12T12:51:43+01:00</time>
      </trkpt>
      <trkpt lat="43.66685" lon="3.30904">
        <ele>390</ele>
        <time>2016-11-12T12:51:56+01:00</time>
      </trkpt>
      <trkpt lat="43.66678" lon="3.30877">
        <ele>389</ele>
        <time>2016-11-12T12:52:16+01:00</time>
      </trkpt>
      <trkpt lat="43.66664" lon="3.30857">
        <ele>389</ele>
        <time>2016-11-12T12:52:36+01:00</time>
      </trkpt>
      <trkpt lat="43.66654" lon="3.3084">
        <ele>387</ele>
        <time>2016-11-12T12:52:49+01:00</time>
      </trkpt>
      <trkpt lat="43.66654" lon="3.30798">
        <ele>386</ele>
        <time>2016-11-12T12:53:24+01:00</time>
      </trkpt>
      <trkpt lat="43.66657" lon="3.30786">
        <ele>385</ele>
        <time>2016-11-12T12:53:37+01:00</time>
      </trkpt>
      <trkpt lat="43.66663" lon="3.30759">
        <ele>384</ele>
        <time>2016-11-12T12:53:58+01:00</time>
      </trkpt>
      <trkpt lat="43.66665" lon="3.30739">
        <ele>382</ele>
        <time>2016-11-12T12:54:11+01:00</time>
      </trkpt>
      <trkpt lat="43.66665" lon="3.30711">
        <ele>380</ele>
        <time>2016-11-12T12:54:27+01:00</time>
      </trkpt>
      <trkpt lat="43.66675" lon="3.30699">
        <ele>378</ele>
        <time>2016-11-12T12:55:19+01:00</time>
      </trkpt>
      <trkpt lat="43.66695" lon="3.30676">
        <ele>374</ele>
        <time>2016-11-12T12:55:38+01:00</time>
      </trkpt>
      <trkpt lat="43.66705" lon="3.30672">
        <ele>374</ele>
        <time>2016-11-12T12:55:46+01:00</time>
      </trkpt>
      <trkpt lat="43.66726" lon="3.30671">
        <ele>373</ele>
        <time>2016-11-12T12:55:59+01:00</time>
      </trkpt>
      <trkpt lat="43.66777" lon="3.30667">
        <ele>368</ele>
        <time>2016-11-12T12:56:33+01:00</time>
      </trkpt>
      <trkpt lat="43.66786" lon="3.30667">
        <ele>367</ele>
        <time>2016-11-12T12:56:39+01:00</time>
      </trkpt>
      <trkpt lat="43.66814" lon="3.30656">
        <ele>364</ele>
        <time>2016-11-12T12:57:07+01:00</time>
      </trkpt>
      <trkpt lat="43.66819" lon="3.30644">
        <ele>362</ele>
        <time>2016-11-12T12:57:19+01:00</time>
      </trkpt>
      <trkpt lat="43.6683" lon="3.3061">
        <ele>359</ele>
        <time>2016-11-12T12:57:44+01:00</time>
      </trkpt>
      <trkpt lat="43.66834" lon="3.30584">
        <ele>359</ele>
        <time>2016-11-12T12:58:02+01:00</time>
      </trkpt>
      <trkpt lat="43.66845" lon="3.30563">
        <ele>359</ele>
        <time>2016-11-12T12:58:24+01:00</time>
      </trkpt>
      <trkpt lat="43.66855" lon="3.30539">
        <ele>359</ele>
        <time>2016-11-12T12:58:46+01:00</time>
      </trkpt>
      <trkpt lat="43.66865" lon="3.30519">
        <ele>359</ele>
        <time>2016-11-12T12:59:07+01:00</time>
      </trkpt>
      <trkpt lat="43.66873" lon="3.30494">
        <ele>359</ele>
        <time>2016-11-12T12:59:34+01:00</time>
      </trkpt>
      <trkpt lat="43.66884" lon="3.3047">
        <ele>359</ele>
        <time>2016-11-12T13:00:06+01:00</time>
      </trkpt>
      <trkpt lat="43.66892" lon="3.30446">
        <ele>360</ele>
        <time>2016-11-12T13:00:27+01:00</time>
      </trkpt>
      <trkpt lat="43.66893" lon="3.30439">
        <ele>360</ele>
        <time>2016-11-12T13:00:32+01:00</time>
      </trkpt>
      <trkpt lat="43.66901" lon="3.30414">
        <ele>360</ele>
        <time>2016-11-12T13:00:54+01:00</time>
      </trkpt>
      <trkpt lat="43.66905" lon="3.30395">
        <ele>360</ele>
        <time>2016-11-12T13:01:11+01:00</time>
      </trkpt>
      <trkpt lat="43.66921" lon="3.3038">
        <ele>360</ele>
        <time>2016-11-12T13:01:35+01:00</time>
      </trkpt>
      <trkpt lat="43.66934" lon="3.30359">
        <ele>359</ele>
        <time>2016-11-12T13:01:57+01:00</time>
      </trkpt>
      <trkpt lat="43.66938" lon="3.30333">
        <ele>359</ele>
        <time>2016-11-12T13:02:21+01:00</time>
      </trkpt>
      <trkpt lat="43.6694" lon="3.30304">
        <ele>360</ele>
        <time>2016-11-12T13:02:42+01:00</time>
      </trkpt>
      <trkpt lat="43.66953" lon="3.30268">
        <ele>360</ele>
        <time>2016-11-12T13:03:14+01:00</time>
      </trkpt>
      <trkpt lat="43.66962" lon="3.30245">
        <ele>360</ele>
        <time>2016-11-12T13:03:35+01:00</time>
      </trkpt>
      <trkpt lat="43.66971" lon="3.30229">
        <ele>360</ele>
        <time>2016-11-12T13:03:51+01:00</time>
      </trkpt>
      <trkpt lat="43.66987" lon="3.30205">
        <ele>359</ele>
        <time>2016-11-12T13:04:20+01:00</time>
      </trkpt>
      <trkpt lat="43.66999" lon="3.30185">
        <ele>359</ele>
        <time>2016-11-12T13:04:40+01:00</time>
      </trkpt>
      <trkpt lat="43.67015" lon="3.3017">
        <ele>359</ele>
        <time>2016-11-12T13:05:01+01:00</time>
      </trkpt>
      <trkpt lat="43.67026" lon="3.30156">
        <ele>359</ele>
        <time>2016-11-12T13:05:18+01:00</time>
      </trkpt>
      <trkpt lat="43.6705" lon="3.3012">
        <ele>359</ele>
        <time>2016-11-12T13:05:53+01:00</time>
      </trkpt>
      <trkpt lat="43.67077" lon="3.30108">
        <ele>360</ele>
        <time>2016-11-12T13:06:25+01:00</time>
      </trkpt>
      <trkpt lat="43.67095" lon="3.30093">
        <ele>360</ele>
        <time>2016-11-12T13:06:45+01:00</time>
      </trkpt>
      <trkpt lat="43.67111" lon="3.3008">
        <ele>360</ele>
        <time>2016-11-12T13:07:05+01:00</time>
      </trkpt>
      <trkpt lat="43.67126" lon="3.30059">
        <ele>361</ele>
        <time>2016-11-12T13:07:24+01:00</time>
      </trkpt>
      <trkpt lat="43.6714" lon="3.3004">
        <ele>362</ele>
        <time>2016-11-12T13:07:42+01:00</time>
      </trkpt>
      <trkpt lat="43.67154" lon="3.3002">
        <ele>363</ele>
        <time>2016-11-12T13:08:03+01:00</time>
      </trkpt>
      <trkpt lat="43.67167" lon="3.29999">
        <ele>364</ele>
        <time>2016-11-12T13:08:22+01:00</time>
      </trkpt>
      <trkpt lat="43.6717" lon="3.29992">
        <ele>364</ele>
        <time>2016-11-12T13:08:27+01:00</time>
      </trkpt>
      <trkpt lat="43.67184" lon="3.29972">
        <ele>365</ele>
        <time>2016-11-12T13:08:47+01:00</time>
      </trkpt>
      <trkpt lat="43.67198" lon="3.29955">
        <ele>365</ele>
        <time>2016-11-12T13:10:16+01:00</time>
      </trkpt>
      <trkpt lat="43.67216" lon="3.29943">
        <ele>365</ele>
        <time>2016-11-12T13:10:39+01:00</time>
      </trkpt>
      <trkpt lat="43.67215" lon="3.29923">
        <ele>365</ele>
        <time>2016-11-12T13:11:00+01:00</time>
      </trkpt>
      <trkpt lat="43.67211" lon="3.29896">
        <ele>365</ele>
        <time>2016-11-12T13:11:36+01:00</time>
      </trkpt>
      <trkpt lat="43.67212" lon="3.29883">
        <ele>365</ele>
        <time>2016-11-12T13:11:46+01:00</time>
      </trkpt>
      <trkpt lat="43.67214" lon="3.29863">
        <ele>365</ele>
        <time>2016-11-12T14:08:24+01:00</time>
      </trkpt>
      <trkpt lat="43.67213" lon="3.29835">
        <ele>365</ele>
        <time>2016-11-12T14:08:46+01:00</time>
      </trkpt>
      <trkpt lat="43.67212" lon="3.29821">
        <ele>365</ele>
        <time>2016-11-12T14:08:55+01:00</time>
      </trkpt>
      <trkpt lat="43.6721" lon="3.29794">
        <ele>365</ele>
        <time>2016-11-12T14:09:16+01:00</time>
      </trkpt>
      <trkpt lat="43.672" lon="3.29768">
        <ele>365</ele>
        <time>2016-11-12T14:09:57+01:00</time>
      </trkpt>
      <trkpt lat="43.67189" lon="3.29753">
        <ele>365</ele>
        <time>2016-11-12T14:10:12+01:00</time>
      </trkpt>
      <trkpt lat="43.67185" lon="3.29729">
        <ele>365</ele>
        <time>2016-11-12T14:10:33+01:00</time>
      </trkpt>
      <trkpt lat="43.67188" lon="3.29703">
        <ele>364</ele>
        <time>2016-11-12T14:11:07+01:00</time>
      </trkpt>
      <trkpt lat="43.67201" lon="3.29681">
        <ele>363</ele>
        <time>2016-11-12T14:11:26+01:00</time>
      </trkpt>
      <trkpt lat="43.67194" lon="3.29655">
        <ele>363</ele>
        <time>2016-11-12T14:11:44+01:00</time>
      </trkpt>
      <trkpt lat="43.67188" lon="3.29633">
        <ele>362</ele>
        <time>2016-11-12T14:11:58+01:00</time>
      </trkpt>
      <trkpt lat="43.67183" lon="3.29613">
        <ele>361</ele>
        <time>2016-11-12T14:12:12+01:00</time>
      </trkpt>
      <trkpt lat="43.67179" lon="3.2958">
        <ele>360</ele>
        <time>2016-11-12T14:12:34+01:00</time>
      </trkpt>
      <trkpt lat="43.67169" lon="3.29556">
        <ele>361</ele>
        <time>2016-11-12T14:12:52+01:00</time>
      </trkpt>
      <trkpt lat="43.6716" lon="3.29554">
        <ele>362</ele>
        <time>2016-11-12T14:13:01+01:00</time>
      </trkpt>
      <trkpt lat="43.67125" lon="3.2956">
        <ele>368</ele>
        <time>2016-11-12T14:13:34+01:00</time>
      </trkpt>
      <trkpt lat="43.67109" lon="3.29562">
        <ele>371</ele>
        <time>2016-11-12T14:13:49+01:00</time>
      </trkpt>
      <trkpt lat="43.6709" lon="3.29563">
        <ele>373</ele>
        <time>2016-11-12T14:14:10+01:00</time>
      </trkpt>
      <trkpt lat="43.67069" lon="3.29571">
        <ele>375</ele>
        <time>2016-11-12T14:14:52+01:00</time>
      </trkpt>
      <trkpt lat="43.67055" lon="3.29577">
        <ele>377</ele>
        <time>2016-11-12T14:15:08+01:00</time>
      </trkpt>
      <trkpt lat="43.67036" lon="3.29586">
        <ele>378</ele>
        <time>2016-11-12T14:15:28+01:00</time>
      </trkpt>
      <trkpt lat="43.67006" lon="3.29584">
        <ele>380</ele>
        <time>2016-11-12T14:15:58+01:00</time>
      </trkpt>
      <trkpt lat="43.6699" lon="3.29566">
        <ele>381</ele>
        <time>2016-11-12T14:16:17+01:00</time>
      </trkpt>
      <trkpt lat="43.66982" lon="3.29557">
        <ele>381</ele>
        <time>2016-11-12T14:16:26+01:00</time>
      </trkpt>
      <trkpt lat="43.66972" lon="3.29535">
        <ele>381</ele>
        <time>2016-11-12T14:16:45+01:00</time>
      </trkpt>
      <trkpt lat="43.66964" lon="3.29517">
        <ele>381</ele>
        <time>2016-11-12T14:17:01+01:00</time>
      </trkpt>
      <trkpt lat="43.66952" lon="3.29497">
        <ele>381</ele>
        <time>2016-11-12T14:17:22+01:00</time>
      </trkpt>
      <trkpt lat="43.66946" lon="3.29487">
        <ele>382</ele>
        <time>2016-11-12T14:17:33+01:00</time>
      </trkpt>
      <trkpt lat="43.66934" lon="3.29465">
        <ele>382</ele>
        <time>2016-11-12T14:17:53+01:00</time>
      </trkpt>
      <trkpt lat="43.66922" lon="3.29443">
        <ele>381</ele>
        <time>2016-11-12T14:18:16+01:00</time>
      </trkpt>
      <trkpt lat="43.66922" lon="3.29415">
        <ele>381</ele>
        <time>2016-11-12T14:18:35+01:00</time>
      </trkpt>
      <trkpt lat="43.66926" lon="3.29385">
        <ele>382</ele>
        <time>2016-11-12T14:19:02+01:00</time>
      </trkpt>
      <trkpt lat="43.66929" lon="3.29363">
        <ele>382</ele>
        <time>2016-11-12T14:19:31+01:00</time>
      </trkpt>
      <trkpt lat="43.66931" lon="3.29338">
        <ele>383</ele>
        <time>2016-11-12T14:19:55+01:00</time>
      </trkpt>
      <trkpt lat="43.66925" lon="3.29304">
        <ele>382</ele>
        <time>2016-11-12T14:20:18+01:00</time>
      </trkpt>
      <trkpt lat="43.66901" lon="3.29222">
        <ele>379</ele>
        <time>2016-11-12T14:22:06+01:00</time>
      </trkpt>
      <trkpt lat="43.66896" lon="3.29195">
        <ele>379</ele>
        <time>2016-11-12T14:22:29+01:00</time>
      </trkpt>
      <trkpt lat="43.66887" lon="3.29175">
        <ele>378</ele>
        <time>2016-11-12T14:22:37+01:00</time>
      </trkpt>
      <trkpt lat="43.6688" lon="3.29149">
        <ele>377</ele>
        <time>2016-11-12T14:23:09+01:00</time>
      </trkpt>
      <trkpt lat="43.66856" lon="3.2911">
        <ele>372</ele>
        <time>2016-11-12T14:23:36+01:00</time>
      </trkpt>
      <trkpt lat="43.66846" lon="3.2909">
        <ele>370</ele>
        <time>2016-11-12T14:23:55+01:00</time>
      </trkpt>
      <trkpt lat="43.66837" lon="3.29062">
        <ele>369</ele>
        <time>2016-11-12T14:24:20+01:00</time>
      </trkpt>
      <trkpt lat="43.66827" lon="3.29037">
        <ele>365</ele>
        <time>2016-11-12T14:24:36+01:00</time>
      </trkpt>
      <trkpt lat="43.66823" lon="3.29011">
        <ele>364</ele>
        <time>2016-11-12T14:24:55+01:00</time>
      </trkpt>
      <trkpt lat="43.6682" lon="3.28994">
        <ele>362</ele>
        <time>2016-11-12T14:25:11+01:00</time>
      </trkpt>
      <trkpt lat="43.66823" lon="3.2897">
        <ele>361</ele>
        <time>2016-11-12T14:25:31+01:00</time>
      </trkpt>
      <trkpt lat="43.66831" lon="3.28941">
        <ele>360</ele>
        <time>2016-11-12T14:25:50+01:00</time>
      </trkpt>
      <trkpt lat="43.66836" lon="3.28917">
        <ele>360</ele>
        <time>2016-11-12T14:26:05+01:00</time>
      </trkpt>
      <trkpt lat="43.66833" lon="3.28893">
        <ele>357</ele>
        <time>2016-11-12T14:26:28+01:00</time>
      </trkpt>
      <trkpt lat="43.66831" lon="3.28872">
        <ele>355</ele>
        <time>2016-11-12T14:26:44+01:00</time>
      </trkpt>
      <trkpt lat="43.66839" lon="3.28853">
        <ele>356</ele>
        <time>2016-11-12T14:27:26+01:00</time>
      </trkpt>
      <trkpt lat="43.66856" lon="3.28838">
        <ele>360</ele>
        <time>2016-11-12T14:27:57+01:00</time>
      </trkpt>
      <trkpt lat="43.66864" lon="3.28833">
        <ele>363</ele>
        <time>2016-11-12T14:28:13+01:00</time>
      </trkpt>
      <trkpt lat="43.6688" lon="3.28817">
        <ele>369</ele>
        <time>2016-11-12T14:28:37+01:00</time>
      </trkpt>
      <trkpt lat="43.66889" lon="3.28799">
        <ele>371</ele>
        <time>2016-11-12T14:28:53+01:00</time>
      </trkpt>
      <trkpt lat="43.6689" lon="3.28787">
        <ele>371</ele>
        <time>2016-11-12T14:29:09+01:00</time>
      </trkpt>
      <trkpt lat="43.66898" lon="3.28762">
        <ele>373</ele>
        <time>2016-11-12T14:29:31+01:00</time>
      </trkpt>
      <trkpt lat="43.66904" lon="3.28743">
        <ele>373</ele>
        <time>2016-11-12T14:29:51+01:00</time>
      </trkpt>
      <trkpt lat="43.6691" lon="3.28716">
        <ele>374</ele>
        <time>2016-11-12T14:30:12+01:00</time>
      </trkpt>
      <trkpt lat="43.66927" lon="3.28701">
        <ele>376</ele>
        <time>2016-11-12T14:30:33+01:00</time>
      </trkpt>
      <trkpt lat="43.66956" lon="3.2868">
        <ele>381</ele>
        <time>2016-11-12T14:31:11+01:00</time>
      </trkpt>
      <trkpt lat="43.66972" lon="3.28664">
        <ele>381</ele>
        <time>2016-11-12T14:31:29+01:00</time>
      </trkpt>
      <trkpt lat="43.66988" lon="3.28647">
        <ele>381</ele>
        <time>2016-11-12T14:31:55+01:00</time>
      </trkpt>
      <trkpt lat="43.67002" lon="3.28644">
        <ele>383</ele>
        <time>2016-11-12T14:32:10+01:00</time>
      </trkpt>
      <trkpt lat="43.67021" lon="3.28633">
        <ele>382</ele>
        <time>2016-11-12T14:32:24+01:00</time>
      </trkpt>
      <trkpt lat="43.67035" lon="3.28626">
        <ele>382</ele>
        <time>2016-11-12T14:32:38+01:00</time>
      </trkpt>
      <trkpt lat="43.67052" lon="3.28613">
        <ele>383</ele>
        <time>2016-11-12T14:32:56+01:00</time>
      </trkpt>
      <trkpt lat="43.67065" lon="3.28582">
        <ele>382</ele>
        <time>2016-11-12T14:33:16+01:00</time>
      </trkpt>
      <trkpt lat="43.67085" lon="3.28563">
        <ele>383</ele>
        <time>2016-11-12T14:33:42+01:00</time>
      </trkpt>
      <trkpt lat="43.67095" lon="3.28539">
        <ele>382</ele>
        <time>2016-11-12T14:34:03+01:00</time>
      </trkpt>
      <trkpt lat="43.67112" lon="3.28514">
        <ele>382</ele>
        <time>2016-11-12T14:34:21+01:00</time>
      </trkpt>
      <trkpt lat="43.67125" lon="3.2849">
        <ele>382</ele>
        <time>2016-11-12T14:34:40+01:00</time>
      </trkpt>
      <trkpt lat="43.67135" lon="3.28466">
        <ele>381</ele>
        <time>2016-11-12T14:35:01+01:00</time>
      </trkpt>
      <trkpt lat="43.67141" lon="3.28455">
        <ele>381</ele>
        <time>2016-11-12T14:35:10+01:00</time>
      </trkpt>
      <trkpt lat="43.67148" lon="3.28417">
        <ele>379</ele>
        <time>2016-11-12T14:35:40+01:00</time>
      </trkpt>
      <trkpt lat="43.6715" lon="3.28392">
        <ele>378</ele>
        <time>2016-11-12T14:35:57+01:00</time>
      </trkpt>
      <trkpt lat="43.6715" lon="3.28373">
        <ele>376</ele>
        <time>2016-11-12T14:36:10+01:00</time>
      </trkpt>
      <trkpt lat="43.67152" lon="3.28352">
        <ele>375</ele>
        <time>2016-11-12T14:36:24+01:00</time>
      </trkpt>
      <trkpt lat="43.67155" lon="3.28332">
        <ele>375</ele>
        <time>2016-11-12T14:36:36+01:00</time>
      </trkpt>
      <trkpt lat="43.67165" lon="3.28316">
        <ele>375</ele>
        <time>2016-11-12T14:36:50+01:00</time>
      </trkpt>
      <trkpt lat="43.67177" lon="3.28292">
        <ele>375</ele>
        <time>2016-11-12T14:37:07+01:00</time>
      </trkpt>
      <trkpt lat="43.67189" lon="3.2827">
        <ele>375</ele>
        <time>2016-11-12T14:37:21+01:00</time>
      </trkpt>
      <trkpt lat="43.67203" lon="3.28266">
        <ele>376</ele>
        <time>2016-11-12T14:37:36+01:00</time>
      </trkpt>
      <trkpt lat="43.67223" lon="3.28269">
        <ele>377</ele>
        <time>2016-11-12T14:37:57+01:00</time>
      </trkpt>
      <trkpt lat="43.67237" lon="3.28252">
        <ele>373</ele>
        <time>2016-11-12T14:38:14+01:00</time>
      </trkpt>
      <trkpt lat="43.67245" lon="3.28227">
        <ele>372</ele>
        <time>2016-11-12T14:38:34+01:00</time>
      </trkpt>
      <trkpt lat="43.67247" lon="3.28208">
        <ele>372</ele>
        <time>2016-11-12T14:38:48+01:00</time>
      </trkpt>
      <trkpt lat="43.67248" lon="3.28182">
        <ele>371</ele>
        <time>2016-11-12T14:39:11+01:00</time>
      </trkpt>
      <trkpt lat="43.67248" lon="3.28155">
        <ele>371</ele>
        <time>2016-11-12T14:39:29+01:00</time>
      </trkpt>
      <trkpt lat="43.67245" lon="3.2813">
        <ele>371</ele>
        <time>2016-11-12T14:39:53+01:00</time>
      </trkpt>
      <trkpt lat="43.67237" lon="3.28103">
        <ele>370</ele>
        <time>2016-11-12T14:40:19+01:00</time>
      </trkpt>
      <trkpt lat="43.67228" lon="3.28079">
        <ele>370</ele>
        <time>2016-11-12T14:40:39+01:00</time>
      </trkpt>
      <trkpt lat="43.67212" lon="3.2806">
        <ele>370</ele>
        <time>2016-11-12T14:40:58+01:00</time>
      </trkpt>
      <trkpt lat="43.67193" lon="3.28051">
        <ele>370</ele>
        <time>2016-11-12T14:41:17+01:00</time>
      </trkpt>
      <trkpt lat="43.67173" lon="3.28045">
        <ele>369</ele>
        <time>2016-11-12T14:41:33+01:00</time>
      </trkpt>
      <trkpt lat="43.67171" lon="3.28016">
        <ele>369</ele>
        <time>2016-11-12T14:42:06+01:00</time>
      </trkpt>
      <trkpt lat="43.67175" lon="3.28012">
        <ele>369</ele>
        <time>2016-11-12T14:42:10+01:00</time>
      </trkpt>
      <trkpt lat="43.67182" lon="3.27985">
        <ele>370</ele>
        <time>2016-11-12T14:42:25+01:00</time>
      </trkpt>
      <trkpt lat="43.6718" lon="3.27958">
        <ele>370</ele>
        <time>2016-11-12T14:42:46+01:00</time>
      </trkpt>
      <trkpt lat="43.67167" lon="3.27937">
        <ele>370</ele>
        <time>2016-11-12T14:42:58+01:00</time>
      </trkpt>
      <trkpt lat="43.67148" lon="3.27953">
        <ele>369</ele>
        <time>2016-11-12T14:43:27+01:00</time>
      </trkpt>
      <trkpt lat="43.67138" lon="3.27968">
        <ele>369</ele>
        <time>2016-11-12T14:43:38+01:00</time>
      </trkpt>
      <trkpt lat="43.67121" lon="3.2798">
        <ele>370</ele>
        <time>2016-11-12T14:43:59+01:00</time>
      </trkpt>
      <trkpt lat="43.67105" lon="3.27969">
        <ele>371</ele>
        <time>2016-11-12T14:44:30+01:00</time>
      </trkpt>
      <trkpt lat="43.67097" lon="3.27977">
        <ele>370</ele>
        <time>2016-11-12T14:54:46+01:00</time>
      </trkpt>
      <trkpt lat="43.67083" lon="3.27987">
        <ele>366</ele>
        <time>2016-11-12T14:55:04+01:00</time>
      </trkpt>
      <trkpt lat="43.67068" lon="3.27968">
        <ele>365</ele>
        <time>2016-11-12T14:55:11+01:00</time>
      </trkpt>
      <trkpt lat="43.67052" lon="3.27948">
        <ele>362</ele>
        <time>2016-11-12T14:55:35+01:00</time>
      </trkpt>
      <trkpt lat="43.67039" lon="3.27933">
        <ele>358</ele>
        <time>2016-11-12T14:55:56+01:00</time>
      </trkpt>
      <trkpt lat="43.67028" lon="3.2791">
        <ele>356</ele>
        <time>2016-11-12T14:56:21+01:00</time>
      </trkpt>
      <trkpt lat="43.67013" lon="3.27891">
        <ele>352</ele>
        <time>2016-11-12T14:56:35+01:00</time>
      </trkpt>
      <trkpt lat="43.66996" lon="3.27875">
        <ele>346</ele>
        <time>2016-11-12T14:56:51+01:00</time>
      </trkpt>
      <trkpt lat="43.66993" lon="3.2787">
        <ele>345</ele>
        <time>2016-11-12T14:56:58+01:00</time>
      </trkpt>
      <trkpt lat="43.66971" lon="3.27834">
        <ele>343</ele>
        <time>2016-11-12T14:58:10+01:00</time>
      </trkpt>
      <trkpt lat="43.66958" lon="3.27813">
        <ele>343</ele>
        <time>2016-11-12T14:58:33+01:00</time>
      </trkpt>
      <trkpt lat="43.66939" lon="3.27804">
        <ele>340</ele>
        <time>2016-11-12T14:58:52+01:00</time>
      </trkpt>
      <trkpt lat="43.66929" lon="3.27806">
        <ele>338</ele>
        <time>2016-11-12T14:59:04+01:00</time>
      </trkpt>
      <trkpt lat="43.66909" lon="3.27807">
        <ele>335</ele>
        <time>2016-11-12T14:59:33+01:00</time>
      </trkpt>
      <trkpt lat="43.66889" lon="3.27796">
        <ele>333</ele>
        <time>2016-11-12T14:59:51+01:00</time>
      </trkpt>
      <trkpt lat="43.66869" lon="3.2779">
        <ele>332</ele>
        <time>2016-11-12T15:00:20+01:00</time>
      </trkpt>
      <trkpt lat="43.66847" lon="3.27795">
        <ele>332</ele>
        <time>2016-11-12T15:00:37+01:00</time>
      </trkpt>
      <trkpt lat="43.66827" lon="3.27799">
        <ele>329</ele>
        <time>2016-11-12T15:00:54+01:00</time>
      </trkpt>
      <trkpt lat="43.66807" lon="3.27807">
        <ele>324</ele>
        <time>2016-11-12T15:01:16+01:00</time>
      </trkpt>
      <trkpt lat="43.6679" lon="3.27818">
        <ele>319</ele>
        <time>2016-11-12T15:02:01+01:00</time>
      </trkpt>
      <trkpt lat="43.66773" lon="3.27832">
        <ele>314</ele>
        <time>2016-11-12T15:02:24+01:00</time>
      </trkpt>
      <trkpt lat="43.66763" lon="3.27849">
        <ele>313</ele>
        <time>2016-11-12T15:02:53+01:00</time>
      </trkpt>
      <trkpt lat="43.66752" lon="3.27875">
        <ele>311</ele>
        <time>2016-11-12T15:03:33+01:00</time>
      </trkpt>
      <trkpt lat="43.66742" lon="3.27849">
        <ele>303</ele>
        <time>2016-11-12T15:04:20+01:00</time>
      </trkpt>
      <trkpt lat="43.66725" lon="3.27859">
        <ele>300</ele>
        <time>2016-11-12T15:05:06+01:00</time>
      </trkpt>
      <trkpt lat="43.66712" lon="3.27877">
        <ele>297</ele>
        <time>2016-11-12T15:05:25+01:00</time>
      </trkpt>
      <trkpt lat="43.66694" lon="3.27892">
        <ele>291</ele>
        <time>2016-11-12T15:06:15+01:00</time>
      </trkpt>
      <trkpt lat="43.66685" lon="3.27898">
        <ele>293</ele>
        <time>2016-11-12T15:06:28+01:00</time>
      </trkpt>
      <trkpt lat="43.66677" lon="3.2792">
        <ele>292</ele>
        <time>2016-11-12T15:07:17+01:00</time>
      </trkpt>
      <trkpt lat="43.66675" lon="3.27948">
        <ele>291</ele>
        <time>2016-11-12T15:07:34+01:00</time>
      </trkpt>
      <trkpt lat="43.66656" lon="3.2796">
        <ele>290</ele>
        <time>2016-11-12T15:07:50+01:00</time>
      </trkpt>
      <trkpt lat="43.66662" lon="3.27933">
        <ele>293</ele>
        <time>2016-11-12T15:08:27+01:00</time>
      </trkpt>
      <trkpt lat="43.66657" lon="3.27908">
        <ele>298</ele>
        <time>2016-11-12T15:08:53+01:00</time>
      </trkpt>
      <trkpt lat="43.66638" lon="3.27899">
        <ele>306</ele>
        <time>2016-11-12T15:09:27+01:00</time>
      </trkpt>
      <trkpt lat="43.66624" lon="3.27906">
        <ele>308</ele>
        <time>2016-11-12T15:09:49+01:00</time>
      </trkpt>
      <trkpt lat="43.66601" lon="3.27931">
        <ele>309</ele>
        <time>2016-11-12T15:10:20+01:00</time>
      </trkpt>
      <trkpt lat="43.66593" lon="3.27938">
        <ele>310</ele>
        <time>2016-11-12T15:10:31+01:00</time>
      </trkpt>
      <trkpt lat="43.66572" lon="3.27957">
        <ele>314</ele>
        <time>2016-11-12T15:11:06+01:00</time>
      </trkpt>
      <trkpt lat="43.66556" lon="3.27962">
        <ele>318</ele>
        <time>2016-11-12T15:11:33+01:00</time>
      </trkpt>
      <trkpt lat="43.66545" lon="3.27936">
        <ele>326</ele>
        <time>2016-11-12T15:12:06+01:00</time>
      </trkpt>
      <trkpt lat="43.66524" lon="3.27931">
        <ele>334</ele>
        <time>2016-11-12T15:12:54+01:00</time>
      </trkpt>
      <trkpt lat="43.66496" lon="3.27931">
        <ele>343</ele>
        <time>2016-11-12T15:13:30+01:00</time>
      </trkpt>
      <trkpt lat="43.66489" lon="3.27949">
        <ele>342</ele>
        <time>2016-11-12T15:13:48+01:00</time>
      </trkpt>
      <trkpt lat="43.66483" lon="3.2796">
        <ele>341</ele>
        <time>2016-11-12T15:13:59+01:00</time>
      </trkpt>
      <trkpt lat="43.66459" lon="3.27995">
        <ele>339</ele>
        <time>2016-11-12T15:14:33+01:00</time>
      </trkpt>
      <trkpt lat="43.66441" lon="3.28007">
        <ele>340</ele>
        <time>2016-11-12T15:14:54+01:00</time>
      </trkpt>
      <trkpt lat="43.6643" lon="3.28029">
        <ele>337</ele>
        <time>2016-11-12T15:15:16+01:00</time>
      </trkpt>
      <trkpt lat="43.66417" lon="3.28043">
        <ele>335</ele>
        <time>2016-11-12T15:15:26+01:00</time>
      </trkpt>
      <trkpt lat="43.66399" lon="3.28054">
        <ele>335</ele>
        <time>2016-11-12T15:15:51+01:00</time>
      </trkpt>
      <trkpt lat="43.66395" lon="3.28057">
        <ele>334</ele>
        <time>2016-11-12T15:15:54+01:00</time>
      </trkpt>
      <trkpt lat="43.66371" lon="3.28079">
        <ele>331</ele>
        <time>2016-11-12T15:16:31+01:00</time>
      </trkpt>
      <trkpt lat="43.66366" lon="3.28082">
        <ele>331</ele>
        <time>2016-11-12T15:16:36+01:00</time>
      </trkpt>
      <trkpt lat="43.66344" lon="3.28097">
        <ele>327</ele>
        <time>2016-11-12T15:16:57+01:00</time>
      </trkpt>
      <trkpt lat="43.66327" lon="3.2811">
        <ele>327</ele>
        <time>2016-11-12T15:17:16+01:00</time>
      </trkpt>
      <trkpt lat="43.66319" lon="3.28126">
        <ele>324</ele>
        <time>2016-11-12T15:17:30+01:00</time>
      </trkpt>
      <trkpt lat="43.66306" lon="3.28147">
        <ele>322</ele>
        <time>2016-11-12T15:17:53+01:00</time>
      </trkpt>
      <trkpt lat="43.66296" lon="3.28163">
        <ele>321</ele>
        <time>2016-11-12T15:18:09+01:00</time>
      </trkpt>
      <trkpt lat="43.66279" lon="3.28182">
        <ele>323</ele>
        <time>2016-11-12T15:18:33+01:00</time>
      </trkpt>
      <trkpt lat="43.66273" lon="3.28207">
        <ele>319</ele>
        <time>2016-11-12T15:18:50+01:00</time>
      </trkpt>
      <trkpt lat="43.66261" lon="3.2823">
        <ele>316</ele>
        <time>2016-11-12T15:19:09+01:00</time>
      </trkpt>
      <trkpt lat="43.6625" lon="3.28253">
        <ele>315</ele>
        <time>2016-11-12T15:19:27+01:00</time>
      </trkpt>
      <trkpt lat="43.66247" lon="3.28258">
        <ele>315</ele>
        <time>2016-11-12T15:19:31+01:00</time>
      </trkpt>
      <trkpt lat="43.66225" lon="3.28302">
        <ele>306</ele>
        <time>2016-11-12T15:20:04+01:00</time>
      </trkpt>
      <trkpt lat="43.66211" lon="3.28323">
        <ele>300</ele>
        <time>2016-11-12T15:20:22+01:00</time>
      </trkpt>
      <trkpt lat="43.66201" lon="3.28346">
        <ele>292</ele>
        <time>2016-11-12T15:20:40+01:00</time>
      </trkpt>
      <trkpt lat="43.66181" lon="3.28377">
        <ele>284</ele>
        <time>2016-11-12T15:21:12+01:00</time>
      </trkpt>
      <trkpt lat="43.6616" lon="3.28395">
        <ele>283</ele>
        <time>2016-11-12T15:21:37+01:00</time>
      </trkpt>
      <trkpt lat="43.66149" lon="3.28406">
        <ele>288</ele>
        <time>2016-11-12T15:21:53+01:00</time>
      </trkpt>
      <trkpt lat="43.66145" lon="3.28453">
        <ele>282</ele>
        <time>2016-11-12T15:22:28+01:00</time>
      </trkpt>
      <trkpt lat="43.66141" lon="3.28473">
        <ele>281</ele>
        <time>2016-11-12T15:22:42+01:00</time>
      </trkpt>
      <trkpt lat="43.66135" lon="3.28492">
        <ele>280</ele>
        <time>2016-11-12T15:22:55+01:00</time>
      </trkpt>
      <trkpt lat="43.66114" lon="3.28522">
        <ele>283</ele>
        <time>2016-11-12T15:23:30+01:00</time>
      </trkpt>
      <trkpt lat="43.66105" lon="3.28548">
        <ele>283</ele>
        <time>2016-11-12T15:23:48+01:00</time>
      </trkpt>
      <trkpt lat="43.661" lon="3.28575">
        <ele>281</ele>
        <time>2016-11-12T15:24:03+01:00</time>
      </trkpt>
      <trkpt lat="43.66092" lon="3.28601">
        <ele>282</ele>
        <time>2016-11-12T15:24:21+01:00</time>
      </trkpt>
      <trkpt lat="43.66087" lon="3.28614">
        <ele>282</ele>
        <time>2016-11-12T15:24:31+01:00</time>
      </trkpt>
      <trkpt lat="43.66071" lon="3.28666">
        <ele>280</ele>
        <time>2016-11-12T15:25:04+01:00</time>
      </trkpt>
      <trkpt lat="43.66064" lon="3.28693">
        <ele>279</ele>
        <time>2016-11-12T15:25:22+01:00</time>
      </trkpt>
      <trkpt lat="43.6606" lon="3.28713">
        <ele>279</ele>
        <time>2016-11-12T15:25:36+01:00</time>
      </trkpt>
      <trkpt lat="43.66053" lon="3.28739">
        <ele>279</ele>
        <time>2016-11-12T15:25:56+01:00</time>
      </trkpt>
      <trkpt lat="43.66052" lon="3.28746">
        <ele>279</ele>
        <time>2016-11-12T15:26:00+01:00</time>
      </trkpt>
      <trkpt lat="43.66041" lon="3.28793">
        <ele>275</ele>
        <time>2016-11-12T15:26:26+01:00</time>
      </trkpt>
      <trkpt lat="43.6603" lon="3.28806">
        <ele>278</ele>
        <time>2016-11-12T15:26:38+01:00</time>
      </trkpt>
      <trkpt lat="43.66025" lon="3.28833">
        <ele>275</ele>
        <time>2016-11-12T15:26:58+01:00</time>
      </trkpt>
      <trkpt lat="43.66015" lon="3.28858">
        <ele>275</ele>
        <time>2016-11-12T15:27:16+01:00</time>
      </trkpt>
      <trkpt lat="43.66013" lon="3.28863">
        <ele>276</ele>
        <time>2016-11-12T15:27:20+01:00</time>
      </trkpt>
      <trkpt lat="43.65999" lon="3.289">
        <ele>278</ele>
        <time>2016-11-12T15:27:51+01:00</time>
      </trkpt>
      <trkpt lat="43.65995" lon="3.28927">
        <ele>278</ele>
        <time>2016-11-12T15:28:09+01:00</time>
      </trkpt>
      <trkpt lat="43.65989" lon="3.28982">
        <ele>273</ele>
        <time>2016-11-12T15:28:33+01:00</time>
      </trkpt>
      <trkpt lat="43.65977" lon="3.28994">
        <ele>278</ele>
        <time>2016-11-12T15:28:54+01:00</time>
      </trkpt>
      <trkpt lat="43.65978" lon="3.29016">
        <ele>272</ele>
        <time>2016-11-12T15:29:07+01:00</time>
      </trkpt>
      <trkpt lat="43.65975" lon="3.2904">
        <ele>268</ele>
        <time>2016-11-12T15:29:23+01:00</time>
      </trkpt>
      <trkpt lat="43.65965" lon="3.29063">
        <ele>267</ele>
        <time>2016-11-12T15:29:41+01:00</time>
      </trkpt>
      <trkpt lat="43.65955" lon="3.29086">
        <ele>267</ele>
        <time>2016-11-12T15:30:03+01:00</time>
      </trkpt>
      <trkpt lat="43.65943" lon="3.2911">
        <ele>265</ele>
        <time>2016-11-12T15:30:32+01:00</time>
      </trkpt>
      <trkpt lat="43.65932" lon="3.29127">
        <ele>265</ele>
        <time>2016-11-12T15:31:07+01:00</time>
      </trkpt>
      <trkpt lat="43.6592" lon="3.29146">
        <ele>263</ele>
        <time>2016-11-12T15:31:25+01:00</time>
      </trkpt>
      <trkpt lat="43.65906" lon="3.29168">
        <ele>257</ele>
        <time>2016-11-12T15:31:49+01:00</time>
      </trkpt>
      <trkpt lat="43.6589" lon="3.29193">
        <ele>252</ele>
        <time>2016-11-12T15:32:14+01:00</time>
      </trkpt>
      <trkpt lat="43.65852" lon="3.29276">
        <ele>241</ele>
        <time>2016-11-12T15:34:07+01:00</time>
      </trkpt>
      <trkpt lat="43.65839" lon="3.29327">
        <ele>234</ele>
        <time>2016-11-12T15:34:46+01:00</time>
      </trkpt>
      <trkpt lat="43.65832" lon="3.2936">
        <ele>228</ele>
        <time>2016-11-12T15:35:06+01:00</time>
      </trkpt>
      <trkpt lat="43.65823" lon="3.29366">
        <ele>229</ele>
        <time>2016-11-12T15:35:16+01:00</time>
      </trkpt>
      <trkpt lat="43.65813" lon="3.29388">
        <ele>226</ele>
        <time>2016-11-12T15:35:35+01:00</time>
      </trkpt>
      <trkpt lat="43.658" lon="3.29398">
        <ele>226</ele>
        <time>2016-11-12T15:35:50+01:00</time>
      </trkpt>
      <trkpt lat="43.65783" lon="3.29408">
        <ele>226</ele>
        <time>2016-11-12T15:36:10+01:00</time>
      </trkpt>
      <trkpt lat="43.65769" lon="3.29413">
        <ele>226</ele>
        <time>2016-11-12T15:36:24+01:00</time>
      </trkpt>
      <trkpt lat="43.6576" lon="3.29412">
        <ele>225</ele>
        <time>2016-11-12T15:36:34+01:00</time>
      </trkpt>
      <trkpt lat="43.65739" lon="3.29417">
        <ele>220</ele>
        <time>2016-11-12T15:36:56+01:00</time>
      </trkpt>
      <trkpt lat="43.65724" lon="3.29425">
        <ele>215</ele>
        <time>2016-11-12T15:37:27+01:00</time>
      </trkpt>
      <trkpt lat="43.65713" lon="3.2943">
        <ele>214</ele>
        <time>2016-11-12T15:37:34+01:00</time>
      </trkpt>
      <trkpt lat="43.65682" lon="3.29436">
        <ele>215</ele>
        <time>2016-11-12T15:37:57+01:00</time>
      </trkpt>
      <trkpt lat="43.65664" lon="3.29452">
        <ele>218</ele>
        <time>2016-11-12T15:38:21+01:00</time>
      </trkpt>
      <trkpt lat="43.65656" lon="3.29481">
        <ele>218</ele>
        <time>2016-11-12T15:38:57+01:00</time>
      </trkpt>
      <trkpt lat="43.6565" lon="3.29507">
        <ele>217</ele>
        <time>2016-11-12T15:39:12+01:00</time>
      </trkpt>
      <trkpt lat="43.65649" lon="3.29513">
        <ele>216</ele>
        <time>2016-11-12T15:39:16+01:00</time>
      </trkpt>
      <trkpt lat="43.65643" lon="3.2954">
        <ele>214</ele>
        <time>2016-11-12T15:39:33+01:00</time>
      </trkpt>
      <trkpt lat="43.65636" lon="3.29567">
        <ele>212</ele>
        <time>2016-11-12T15:39:52+01:00</time>
      </trkpt>
      <trkpt lat="43.65631" lon="3.29586">
        <ele>211</ele>
        <time>2016-11-12T15:40:09+01:00</time>
      </trkpt>
      <trkpt lat="43.65624" lon="3.296">
        <ele>211</ele>
        <time>2016-11-12T15:40:23+01:00</time>
      </trkpt>
      <trkpt lat="43.65613" lon="3.29624">
        <ele>211</ele>
        <time>2016-11-12T15:40:38+01:00</time>
      </trkpt>
      <trkpt lat="43.65602" lon="3.29645">
        <ele>210</ele>
        <time>2016-11-12T15:40:50+01:00</time>
      </trkpt>
      <trkpt lat="43.65592" lon="3.29666">
        <ele>209</ele>
        <time>2016-11-12T15:41:09+01:00</time>
      </trkpt>
      <trkpt lat="43.65582" lon="3.29692">
        <ele>206</ele>
        <time>2016-11-12T15:41:27+01:00</time>
      </trkpt>
      <trkpt lat="43.65571" lon="3.29703">
        <ele>206</ele>
        <time>2016-11-12T15:41:43+01:00</time>
      </trkpt>
      <trkpt lat="43.6556" lon="3.29727">
        <ele>204</ele>
        <time>2016-11-12T15:42:00+01:00</time>
      </trkpt>
      <trkpt lat="43.65551" lon="3.29736">
        <ele>204</ele>
        <time>2016-11-12T15:42:07+01:00</time>
      </trkpt>
      <trkpt lat="43.65544" lon="3.29755">
        <ele>203</ele>
        <time>2016-11-12T15:42:20+01:00</time>
      </trkpt>
      <trkpt lat="43.65533" lon="3.29778">
        <ele>201</ele>
        <time>2016-11-12T15:42:37+01:00</time>
      </trkpt>
      <trkpt lat="43.65526" lon="3.29796">
        <ele>201</ele>
        <time>2016-11-12T15:42:49+01:00</time>
      </trkpt>
      <trkpt lat="43.65517" lon="3.29818">
        <ele>201</ele>
        <time>2016-11-12T15:43:05+01:00</time>
      </trkpt>
      <trkpt lat="43.65524" lon="3.29851">
        <ele>200</ele>
        <time>2016-11-12T15:43:47+01:00</time>
      </trkpt>
      <trkpt lat="43.65518" lon="3.29901">
        <ele>200</ele>
        <time>2016-11-12T15:44:29+01:00</time>
      </trkpt>
      <trkpt lat="43.65515" lon="3.29923">
        <ele>200</ele>
        <time>2016-11-12T15:44:39+01:00</time>
      </trkpt>
      <trkpt lat="43.65524" lon="3.29948">
        <ele>201</ele>
        <time>2016-11-12T15:45:01+01:00</time>
      </trkpt>
      <trkpt lat="43.65526" lon="3.29969">
        <ele>201</ele>
        <time>2016-11-12T15:45:16+01:00</time>
      </trkpt>
      <trkpt lat="43.65515" lon="3.29991">
        <ele>201</ele>
        <time>2016-11-12T15:45:45+01:00</time>
      </trkpt>
      <trkpt lat="43.65505" lon="3.30017">
        <ele>200</ele>
        <time>2016-11-12T15:46:09+01:00</time>
      </trkpt>
      <trkpt lat="43.65492" lon="3.30037">
        <ele>200</ele>
        <time>2016-11-12T15:46:26+01:00</time>
      </trkpt>
      <trkpt lat="43.65489" lon="3.30065">
        <ele>200</ele>
        <time>2016-11-12T15:46:44+01:00</time>
      </trkpt>
      <trkpt lat="43.65484" lon="3.30093">
        <ele>200</ele>
        <time>2016-11-12T15:46:58+01:00</time>
      </trkpt>
      <trkpt lat="43.6548" lon="3.30106">
        <ele>200</ele>
        <time>2016-11-12T15:47:08+01:00</time>
      </trkpt>
      <trkpt lat="43.6547" lon="3.30129">
        <ele>199</ele>
        <time>2016-11-12T15:47:25+01:00</time>
      </trkpt>
      <trkpt lat="43.65459" lon="3.30148">
        <ele>198</ele>
        <time>2016-11-12T15:47:36+01:00</time>
      </trkpt>
      <trkpt lat="43.65451" lon="3.30173">
        <ele>198</ele>
        <time>2016-11-12T15:47:51+01:00</time>
      </trkpt>
      <trkpt lat="43.65449" lon="3.30185">
        <ele>198</ele>
        <time>2016-11-12T15:47:58+01:00</time>
      </trkpt>
      <trkpt lat="43.6544" lon="3.30215">
        <ele>198</ele>
        <time>2016-11-12T15:48:16+01:00</time>
      </trkpt>
      <trkpt lat="43.65432" lon="3.3024">
        <ele>196</ele>
        <time>2016-11-12T15:48:58+01:00</time>
      </trkpt>
      <trkpt lat="43.6543" lon="3.30261">
        <ele>194</ele>
        <time>2016-11-12T15:49:10+01:00</time>
      </trkpt>
      <trkpt lat="43.65429" lon="3.30287">
        <ele>193</ele>
        <time>2016-11-12T15:49:24+01:00</time>
      </trkpt>
      <trkpt lat="43.65435" lon="3.30311">
        <ele>192</ele>
        <time>2016-11-12T15:50:01+01:00</time>
      </trkpt>
      <trkpt lat="43.65411" lon="3.30333">
        <ele>190</ele>
        <time>2016-11-12T15:50:19+01:00</time>
      </trkpt>
      <trkpt lat="43.65394" lon="3.30346">
        <ele>188</ele>
        <time>2016-11-12T15:50:31+01:00</time>
      </trkpt>
      <trkpt lat="43.65383" lon="3.30372">
        <ele>187</ele>
        <time>2016-11-12T15:50:50+01:00</time>
      </trkpt>
    </trkseg>
  </trk>
</gpx>